Terminal Aerodrome Forecast
Issued by NWS

Home | Current Version | Previous Version | Text Only | Print | Product List | Glossary On
Versions: 1 2 3 4 5 6 7 8 9 10 11 12 13 14 15 16 17 18 19 20 21 22
000
FTUS43 KIWX 231400 AAB
TAFSBN
TAF AMD
KSBN 231451Z 2315/2412 13005KT 3SM BR BKN005
     FM231600 10005KT 5SM BR BKN015
     FM231800 08007KT P6SM SCT040
     FM240900 09005KT 5SM BR SCT020=

USA.gov is the U.S. government's official web portal to all federal, state and local government web resources and services.